Time,TemperatureF,DewpointF,PressureIn,WindDirection,WindDirectionDegrees,WindSpeedMPH,WindSpeedGustMPH,Humidity,HourlyPrecipIn,Conditions,Clouds,dailyrainin,SoftwareType,DateUTC
2013-07-29 00:02:00,64.0,60.0,30.09,South,175,0.0,0.0,86,0.00,,,0.00,,2013-07-29 05:02:00,
2013-07-29 00:12:00,64.0,60.0,30.09,South,175,0.0,0.0,87,0.00,,,0.00,,2013-07-29 05:12:00,
2013-07-29 00:22:00,64.0,60.0,30.09,South,175,0.0,0.0,87,0.00,,,0.00,,2013-07-29 05:22:00,
2013-07-29 00:32:00,64.0,60.0,30.09,South,175,0.0,0.0,87,0.00,,,0.00,,2013-07-29 05:32:00,
2013-07-29 00:42:00,64.0,60.0,30.09,South,175,0.0,0.0,87,0.00,,,0.00,,2013-07-29 05:42:00,
2013-07-29 00:53:00,64.0,60.0,30.09,South,175,0.0,0.0,87,0.00,,,0.00,,2013-07-29 05:53:00,
2013-07-29 01:02:00,64.0,60.0,30.09,South,175,0.0,0.0,87,0.00,,,0.00,,2013-07-29 06:02:00,
2013-07-29 01:12:00,64.0,60.0,30.09,South,175,0.0,0.0,87,0.00,,,0.00,,2013-07-29 06:12:00,
2013-07-29 01:22:00,64.0,60.0,30.09,South,175,0.0,0.0,88,0.00,,,0.00,,2013-07-29 06:22:00,
2013-07-29 01:32:00,63.0,59.0,30.09,South,175,0.0,0.0,88,0.00,,,0.00,,2013-07-29 06:32:00,
2013-07-29 01:43:00,63.0,59.0,30.09,South,175,0.0,0.0,88,0.00,,,0.00,,2013-07-29 06:43:00,
2013-07-29 01:52:00,63.0,59.0,30.09,South,175,0.0,0.0,88,0.00,,,0.00,,2013-07-29 06:52:00,
2013-07-29 02:02:00,63.0,60.0,30.08,South,175,0.0,0.0,89,0.00,,,0.00,,2013-07-29 07:02:00,
2013-07-29 02:12:00,63.0,60.0,30.08,South,175,0.0,0.0,89,0.00,,,0.00,,2013-07-29 07:12:00,
2013-07-29 02:22:00,63.0,60.0,30.09,South,175,0.0,0.0,89,0.00,,,0.00,,2013-07-29 07:22:00,
2013-07-29 02:33:00,62.0,59.0,30.09,South,175,0.0,0.0,89,0.00,,,0.00,,2013-07-29 07:33:00,
2013-07-29 02:43:00,62.0,59.0,30.09,South,175,0.0,0.0,90,0.00,,,0.00,,2013-07-29 07:43:00,
2013-07-29 02:53:00,62.0,59.0,30.10,South,175,0.0,0.0,90,0.00,,,0.00,,2013-07-29 07:53:00,
2013-07-29 03:02:00,62.0,59.0,30.10,South,175,0.0,0.0,90,0.00,,,0.00,,2013-07-29 08:02:00,
2013-07-29 03:12:00,62.0,59.0,30.10,South,175,0.0,0.0,90,0.00,,,0.00,,2013-07-29 08:12:00,
2013-07-29 03:22:00,62.0,59.0,30.10,South,175,0.0,0.0,91,0.00,,,0.00,,2013-07-29 08:22:00,
2013-07-29 03:33:00,61.0,58.0,30.09,South,175,0.0,0.0,91,0.00,,,0.00,,2013-07-29 08:33:00,
2013-07-29 03:42:00,61.0,58.0,30.09,South,175,0.0,0.0,91,0.00,,,0.00,,2013-07-29 08:42:00,
2013-07-29 03:52:00,61.0,58.0,30.10,South,175,0.0,0.0,91,0.00,,,0.00,,2013-07-29 08:52:00,
2013-07-29 04:02:00,61.0,58.0,30.11,South,175,0.0,0.0,91,0.00,,,0.00,,2013-07-29 09:02:00,
2013-07-29 04:12:00,61.0,58.0,30.11,South,174,0.0,0.0,91,0.00,,,0.00,,2013-07-29 09:12:00,
2013-07-29 04:22:00,61.0,59.0,30.11,South,174,0.0,0.0,92,0.00,,,0.00,,2013-07-29 09:22:00,
2013-07-29 04:33:00,61.0,59.0,30.11,South,175,0.0,0.0,92,0.00,,,0.00,,2013-07-29 09:33:00,
2013-07-29 04:43:00,61.0,59.0,30.11,South,174,0.0,0.0,92,0.00,,,0.00,,2013-07-29 09:43:00,
2013-07-29 04:53:00,61.0,59.0,30.11,South,175,0.0,0.0,92,0.00,,,0.00,,2013-07-29 09:53:00,
2013-07-29 05:04:00,61.0,59.0,30.11,South,174,0.0,0.0,92,0.00,,,0.00,,2013-07-29 10:04:00,
2013-07-29 05:14:00,61.0,59.0,30.11,South,174,0.0,0.0,92,0.00,,,0.00,,2013-07-29 10:14:00,
2013-07-29 05:25:00,61.0,59.0,30.12,South,174,0.0,0.0,92,0.00,,,0.00,,2013-07-29 10:25:00,
2013-07-29 05:37:00,61.0,59.0,30.13,South,174,0.0,0.0,93,0.00,,,0.00,,2013-07-29 10:37:00,
2013-07-29 05:48:00,61.0,59.0,30.13,South,174,0.0,0.0,94,0.00,,,0.00,,2013-07-29 10:48:00,
2013-07-29 06:15:00,60.0,58.0,30.13,South,174,0.0,0.0,94,0.00,,,0.00,,2013-07-29 11:15:00,
2013-07-29 06:24:00,60.0,58.0,30.13,South,174,0.0,0.0,94,0.00,,,0.00,,2013-07-29 11:24:00,
2013-07-29 06:36:00,60.0,58.0,30.13,South,174,0.0,0.0,94,0.00,,,0.00,,2013-07-29 11:36:00,
2013-07-29 06:44:00,60.0,58.0,30.13,South,174,0.0,0.0,94,0.00,,,0.00,,2013-07-29 11:44:00,
2013-07-29 06:55:00,60.0,58.0,30.15,South,174,0.0,0.0,94,0.00,,,0.00,,2013-07-29 11:55:00,
2013-07-29 07:14:00,61.0,60.0,30.15,SSW,213,0.0,1.0,96,0.00,,,0.00,,2013-07-29 12:14:00,
2013-07-29 07:25:00,62.0,61.0,30.15,SSW,213,0.0,0.0,96,0.00,,,0.00,,2013-07-29 12:25:00,
2013-07-29 07:35:00,62.0,61.0,30.15,SSW,213,0.0,0.0,96,0.00,,,0.00,,2013-07-29 12:35:00,
2013-07-29 07:55:00,63.0,62.0,30.16,SSW,213,0.0,0.0,97,0.00,,,0.00,,2013-07-29 12:55:00,
2013-07-29 08:17:00,64.0,63.0,30.16,WSW,255,3.0,3.0,97,0.00,,,0.00,,2013-07-29 13:17:00,
2013-07-29 08:27:00,65.0,64.0,30.16,SW,223,2.0,3.0,97,0.00,,,0.00,,2013-07-29 13:27:00,
2013-07-29 08:36:00,65.0,64.0,30.16,SW,225,0.0,0.0,97,0.00,,,0.00,,2013-07-29 13:36:00,
2013-07-29 08:44:00,66.0,65.0,30.16,SW,225,0.0,0.0,97,0.00,,,0.00,,2013-07-29 13:44:00,
2013-07-29 08:54:00,66.0,65.0,30.17,SW,226,1.0,3.0,97,0.00,,,0.00,,2013-07-29 13:54:00,
2013-07-29 09:05:00,67.0,66.0,30.18,SW,225,0.0,0.0,97,0.00,,,0.00,,2013-07-29 14:05:00,
2013-07-29 09:12:00,67.0,66.0,30.18,SW,225,1.0,1.0,97,0.00,,,0.00,,2013-07-29 14:12:00,
2013-07-29 09:27:00,68.0,67.0,30.18,SW,226,1.0,1.0,97,0.00,,,0.00,,2013-07-29 14:27:00,
2013-07-29 09:35:00,69.0,68.0,30.18,SW,226,1.0,1.0,96,0.00,,,0.00,,2013-07-29 14:35:00,
2013-07-29 09:55:00,70.0,68.0,30.18,SW,227,2.0,2.0,93,0.00,,,0.00,,2013-07-29 14:55:00,
2013-07-29 10:07:00,71.0,69.0,30.18,SW,227,2.0,3.0,92,0.00,,,0.00,,2013-07-29 15:07:00,
2013-07-29 10:14:00,71.0,69.0,30.18,SW,227,2.0,3.0,92,0.00,,,0.00,,2013-07-29 15:14:00,
2013-07-29 10:37:00,74.0,64.0,30.18,South,184,0.0,2.0,71,0.00,,,0.00,,2013-07-29 15:37:00,
2013-07-29 10:45:00,76.0,66.0,30.18,NNW,336,1.0,2.0,72,0.00,,,0.00,,2013-07-29 15:45:00,
2013-07-29 10:55:00,76.0,64.0,30.18,South,175,0.0,1.0,67,0.00,,,0.00,,2013-07-29 15:55:00,
2013-07-29 11:06:00,76.0,63.0,30.18,SSW,202,0.0,0.0,64,0.00,,,0.00,,2013-07-29 16:06:00,
2013-07-29 11:13:00,77.0,63.0,30.18,NE,34,1.0,1.0,63,0.00,,,0.00,,2013-07-29 16:13:00,
2013-07-29 11:24:00,77.0,64.0,30.19,SE,128,0.0,3.0,65,0.00,,,0.00,,2013-07-29 16:24:00,
2013-07-29 11:38:00,77.0,60.0,30.19,WNW,283,1.0,1.0,55,0.00,,,0.00,,2013-07-29 16:38:00,
2013-07-29 11:45:00,78.0,63.0,30.19,WNW,286,0.0,0.0,60,0.00,,,0.00,,2013-07-29 16:45:00,
2013-07-29 12:07:00,79.0,60.0,30.18,SSW,205,1.0,3.0,53,0.00,,,0.00,,2013-07-29 17:07:00,
2013-07-29 12:13:00,78.0,62.0,30.18,WSW,250,1.0,2.0,57,0.00,,,0.00,,2013-07-29 17:13:00,
2013-07-29 12:24:00,78.0,57.0,30.18,WSW,247,1.0,3.0,49,0.00,,,0.00,,2013-07-29 17:24:00,
2013-07-29 12:44:00,79.0,60.0,30.18,SE,135,1.0,2.0,53,0.00,,,0.00,,2013-07-29 17:44:00,
2013-07-29 12:56:00,78.0,57.0,30.18,South,190,0.0,1.0,48,0.00,,,0.00,,2013-07-29 17:56:00,
2013-07-29 13:06:00,79.0,60.0,30.19,WNW,303,5.0,6.0,52,0.00,,,0.00,,2013-07-29 18:06:00,
2013-07-29 13:14:00,78.0,59.0,30.19,WNW,284,1.0,3.0,53,0.00,,,0.00,,2013-07-29 18:14:00,
2013-07-29 13:27:00,78.0,59.0,30.18,WSW,242,0.0,0.0,52,0.00,,,0.00,,2013-07-29 18:27:00,
2013-07-29 13:35:00,79.0,61.0,30.18,South,169,1.0,2.0,55,0.00,,,0.00,,2013-07-29 18:35:00,
2013-07-29 13:45:00,79.0,60.0,30.18,ESE,111,0.0,0.0,52,0.00,,,0.00,,2013-07-29 18:45:00,
2013-07-29 13:55:00,79.0,61.0,30.18,WNW,294,0.0,2.0,55,0.00,,,0.00,,2013-07-29 18:55:00,
2013-07-29 14:03:00,78.0,61.0,30.18,SE,125,2.0,3.0,55,0.00,,,0.00,,2013-07-29 19:03:00,
2013-07-29 14:25:00,79.0,60.0,30.18,SE,146,0.0,3.0,53,0.00,,,0.00,,2013-07-29 19:25:00,
2013-07-29 14:36:00,79.0,60.0,30.17,SSW,194,0.0,0.0,53,0.00,,,0.00,,2013-07-29 19:36:00,
2013-07-29 14:45:00,78.0,61.0,30.17,SSW,194,1.0,1.0,55,0.00,,,0.00,,2013-07-29 19:45:00,
2013-07-29 14:53:00,78.0,59.0,30.17,West,263,0.0,1.0,53,0.00,,,0.00,,2013-07-29 19:53:00,
2013-07-29 15:15:00,79.0,60.0,30.16,NW,317,0.0,1.0,52,0.00,,,0.00,,2013-07-29 20:15:00,
2013-07-29 15:24:00,81.0,66.0,30.16,South,188,1.0,2.0,60,0.00,,,0.00,,2013-07-29 20:24:00,
2013-07-29 15:47:00,80.0,62.0,30.16,SSE,164,0.0,1.0,55,0.00,,,0.00,,2013-07-29 20:47:00,
2013-07-29 15:56:00,80.0,61.0,30.16,SSE,164,0.0,1.0,52,0.00,,,0.00,,2013-07-29 20:56:00,
2013-07-29 16:17:00,81.0,60.0,30.16,WNW,282,1.0,1.0,49,0.00,,,0.00,,2013-07-29 21:17:00,
2013-07-29 16:24:00,80.0,62.0,30.16,SW,214,1.0,3.0,55,0.00,,,0.00,,2013-07-29 21:24:00,
2013-07-29 16:35:00,81.0,63.0,30.16,WNW,303,0.0,3.0,55,0.00,,,0.00,,2013-07-29 21:35:00,
2013-07-29 16:47:00,80.0,63.0,30.16,ESE,115,0.0,0.0,57,0.00,,,0.00,,2013-07-29 21:47:00,
2013-07-29 17:00:00,81.0,63.0,30.17,ESE,116,0.0,0.0,54,0.00,,,0.00,,2013-07-29 22:00:00,
2013-07-29 17:16:00,82.0,64.0,30.17,ESE,120,0.0,3.0,55,0.00,,,0.00,,2013-07-29 22:16:00,
2013-07-29 17:25:00,83.0,62.0,30.16,SSW,202,1.0,1.0,49,0.00,,,0.00,,2013-07-29 22:25:00,
2013-07-29 17:37:00,82.0,61.0,30.17,SSW,202,0.0,0.0,49,0.00,,,0.00,,2013-07-29 22:37:00,
2013-07-29 17:44:00,81.0,65.0,30.17,SSW,202,0.0,0.0,59,0.00,,,0.00,,2013-07-29 22:44:00,
2013-07-29 17:55:00,80.0,66.0,30.17,SSW,202,0.0,0.0,62,0.00,,,0.00,,2013-07-29 22:55:00,
2013-07-29 18:05:00,80.0,66.0,30.16,SSW,202,0.0,0.0,62,0.00,,,0.00,,2013-07-29 23:05:00,
2013-07-29 18:14:00,79.0,65.0,30.16,SSW,202,0.0,0.0,63,0.00,,,0.00,,2013-07-29 23:14:00,
2013-07-29 18:26:00,79.0,66.0,30.16,SSW,202,0.0,0.0,64,0.00,,,0.00,,2013-07-29 23:26:00,
2013-07-29 18:35:00,79.0,66.0,30.16,SSW,202,0.0,0.0,65,0.00,,,0.00,,2013-07-29 23:35:00,
2013-07-29 18:44:00,78.0,65.0,30.16,SSW,202,0.0,0.0,65,0.00,,,0.00,,2013-07-29 23:44:00,
2013-07-29 19:07:00,77.0,66.0,30.16,SSW,202,0.0,0.0,69,0.00,,,0.00,,2013-07-30 00:07:00,
2013-07-29 19:17:00,77.0,66.0,30.16,SSW,202,0.0,0.0,68,0.00,,,0.00,,2013-07-30 00:17:00,
2013-07-29 19:25:00,77.0,67.0,30.16,SSW,202,0.0,0.0,72,0.00,,,0.00,,2013-07-30 00:25:00,
2013-07-29 19:34:00,77.0,68.0,30.16,SSW,202,0.0,0.0,73,0.00,,,0.00,,2013-07-30 00:34:00,
2013-07-29 19:47:00,76.0,67.0,30.16,SSW,202,0.0,0.0,75,0.00,,,0.00,,2013-07-30 00:47:00,
2013-07-29 19:54:00,76.0,68.0,30.16,SSW,202,0.0,0.0,77,0.00,,,0.00,,2013-07-30 00:54:00,
2013-07-29 20:16:00,75.0,68.0,30.16,SSW,202,0.0,0.0,78,0.00,,,0.00,,2013-07-30 01:16:00,
2013-07-29 20:23:00,75.0,68.0,30.16,SSW,202,0.0,0.0,79,0.00,,,0.00,,2013-07-30 01:23:00,
2013-07-29 20:36:00,75.0,68.0,30.16,SSW,202,0.0,0.0,79,0.00,,,0.00,,2013-07-30 01:36:00,
2013-07-29 20:44:00,74.0,67.0,30.16,SSW,202,0.0,0.0,79,0.00,,,0.00,,2013-07-30 01:44:00,
2013-07-29 20:55:00,74.0,67.0,30.16,SSW,202,0.0,0.0,79,0.00,,,0.00,,2013-07-30 01:55:00,
2013-07-29 21:05:00,74.0,67.0,30.17,SSW,202,0.0,0.0,80,0.00,,,0.00,,2013-07-30 02:05:00,
2013-07-29 21:13:00,73.0,67.0,30.17,SSW,202,0.0,0.0,81,0.00,,,0.00,,2013-07-30 02:13:00,
2013-07-29 21:24:00,73.0,67.0,30.17,SSW,202,0.0,0.0,82,0.00,,,0.00,,2013-07-30 02:24:00,
2013-07-29 21:45:00,73.0,68.0,30.18,SSW,202,0.0,0.0,83,0.00,,,0.00,,2013-07-30 02:45:00,
2013-07-29 21:53:00,72.0,67.0,30.17,SSW,202,0.0,0.0,85,0.00,,,0.00,,2013-07-30 02:53:00,
2013-07-29 21:54:00,72.0,67.0,30.18,SSW,202,0.0,0.0,84,0.00,,,0.00,,2013-07-30 02:54:00,
2013-07-29 22:08:00,72.0,67.0,30.17,SSW,202,0.0,0.0,85,0.00,,,0.00,,2013-07-30 03:08:00,
2013-07-29 22:18:00,72.0,67.0,30.17,SSW,202,0.0,0.0,85,0.00,,,0.00,,2013-07-30 03:18:00,
2013-07-29 22:25:00,72.0,67.0,30.17,SSW,202,0.0,0.0,85,0.00,,,0.00,,2013-07-30 03:25:00,
2013-07-29 22:34:00,72.0,67.0,30.17,SSW,202,0.0,0.0,85,0.00,,,0.00,,2013-07-30 03:34:00,